Time;durP1;ratioP1;P1;durP2;ratioP2;P2;SDS_P1;SDS_P2;PMS_P1;PMS_P2;Temp;Humidity;BMP_temperature;BMP_pressure;BME280_temperature;BME280_humidity;BME280_pressure;Samples;Min_cycle;Max_cycle;Signal;HPM_P1;HPM_P2
2022/10/05 00:00:17;;;;;;;12.27;7.00;;;15.50;99.90;;;;;;5113423;28;20093;-60
2022/10/05 00:02:45;;;;;;;13.85;6.75;;;15.50;99.90;;;;;;5112041;28;20044;-61
2022/10/05 00:05:25;;;;;;;9.98;6.80;;;15.50;99.90;;;;;;5113280;28;20132;-62
2022/10/05 00:07:52;;;;;;;13.43;6.90;;;15.50;99.90;;;;;;5095193;28;20098;-61
2022/10/05 00:10:21;;;;;;;10.23;6.90;;;15.50;99.90;;;;;;5112324;28;20492;-61
2022/10/05 00:12:49;;;;;;;9.85;6.80;;;15.50;99.90;;;;;;5094816;28;20055;-61
2022/10/05 00:15:18;;;;;;;10.65;7.13;;;15.50;99.90;;;;;;5113057;28;20514;-61
2022/10/05 00:17:45;;;;;;;10.13;6.38;;;15.60;99.90;;;;;;5112002;28;20051;-61
2022/10/05 00:20:18;;;;;;;11.13;6.63;;;15.60;99.90;;;;;;5112692;28;20093;-61
2022/10/05 00:22:45;;;;;;;8.82;6.00;;;15.60;99.90;;;;;;5094681;28;20056;-62
2022/10/05 00:25:16;;;;;;;9.90;6.70;;;15.50;99.90;;;;;;5112194;28;20039;-62
2022/10/05 00:27:48;;;;;;;10.30;6.05;;;15.50;99.90;;;;;;5095027;28;20051;-61
2022/10/05 00:30:17;;;;;;;9.27;6.63;;;15.50;99.90;;;;;;5112811;28;20059;-62
2022/10/05 00:32:44;;;;;;;11.13;6.53;;;15.50;99.90;;;;;;5094145;28;20047;-62
2022/10/05 00:35:12;;;;;;;12.57;5.95;;;15.50;99.90;;;;;;5112939;28;20087;-62
2022/10/05 00:37:39;;;;;;;10.05;5.65;;;15.50;99.90;;;;;;5094050;28;20059;-62
2022/10/05 00:40:19;;;;;;;8.52;5.80;;;15.50;99.90;;;;;;5094153;28;20123;-61
2022/10/05 00:42:57;;;;;;;8.95;5.93;;;15.50;99.90;;;;;;5094429;28;20178;-61
2022/10/05 00:45:28;;;;;;;11.80;6.05;;;15.50;99.90;;;;;;5095927;28;20559;-61
2022/10/05 00:48:05;;;;;;;8.52;6.30;;;15.50;99.90;;;;;;5116586;28;20047;-61
2022/10/05 00:50:48;;;;;;;10.18;6.03;;;15.50;99.90;;;;;;5116408;28;20192;-61
2022/10/05 00:53:27;;;;;;;7.57;5.40;;;15.50;99.90;;;;;;5115175;28;20052;-61
2022/10/05 00:56:01;;;;;;;8.85;5.95;;;15.40;99.90;;;;;;5116714;28;20100;-61
2022/10/05 00:58:41;;;;;;;7.38;5.57;;;15.50;99.90;;;;;;5116012;28;20120;-60
2022/10/05 01:01:12;;;;;;;7.50;5.03;;;15.50;99.90;;;;;;5098327;28;20055;-60
2022/10/05 01:03:49;;;;;;;6.07;4.93;;;15.50;99.90;;;;;;5097724;28;20059;-59
2022/10/05 01:06:24;;;;;;;7.60;5.15;;;15.50;99.90;;;;;;5114734;28;20048;-60
2022/10/05 01:09:01;;;;;;;7.55;4.85;;;15.50;99.90;;;;;;5116235;28;20051;-61
2022/10/05 01:11:37;;;;;;;6.20;4.32;;;15.40;99.90;;;;;;5116020;28;20499;-61
2022/10/05 01:14:14;;;;;;;6.50;4.22;;;15.40;99.90;;;;;;5096947;28;20121;-61
2022/10/05 01:16:50;;;;;;;8.20;5.10;;;15.40;99.90;;;;;;5097921;28;20096;-61
2022/10/05 01:19:34;;;;;;;8.32;4.35;;;15.50;99.90;;;;;;5115730;28;20052;-59
2022/10/05 01:22:07;;;;;;;8.15;4.30;;;15.40;99.90;;;;;;5097069;28;20271;-60
2022/10/05 01:24:44;;;;;;;10.35;4.68;;;15.50;99.90;;;;;;5097755;28;20461;-61
2022/10/05 01:27:28;;;;;;;6.03;4.53;;;15.50;99.90;;;;;;5114690;28;20055;-60
2022/10/05 01:30:01;;;;;;;6.30;4.50;;;15.50;99.90;;;;;;5094799;28;20081;-60
2022/10/05 01:32:34;;;;;;;14.18;4.72;;;15.50;99.90;;;;;;5095244;28;20051;-61
2022/10/05 01:35:15;;;;;;;7.38;4.45;;;15.50;99.90;;;;;;5110579;28;20059;-61
2022/10/05 01:37:50;;;;;;;9.85;5.30;;;15.50;99.90;;;;;;5112288;28;20113;-61
2022/10/05 01:40:26;;;;;;;8.70;5.57;;;15.50;99.90;;;;;;5097418;28;20547;-61
2022/10/05 01:43:04;;;;;;;6.80;4.57;;;15.50;99.90;;;;;;5114255;28;20047;-60
2022/10/05 01:45:42;;;;;;;9.95;5.25;;;15.50;99.90;;;;;;5097518;28;20491;-60
2022/10/05 01:48:16;;;;;;;6.22;4.70;;;15.50;99.90;;;;;;5114673;28;20052;-61
2022/10/05 01:50:53;;;;;;;9.32;5.60;;;15.50;99.90;;;;;;5115308;28;20051;-60
2022/10/05 01:53:32;;;;;;;10.07;4.97;;;15.50;99.90;;;;;;5115032;28;20044;-60
2022/10/05 01:56:10;;;;;;;7.70;5.40;;;15.50;99.90;;;;;;5113888;28;20048;-61
2022/10/05 01:58:48;;;;;;;9.65;5.30;;;15.50;99.90;;;;;;5097135;28;20090;-60
2022/10/05 02:01:25;;;;;;;7.53;5.57;;;15.50;99.90;;;;;;5115328;28;20047;-60
2022/10/05 02:03:59;;;;;;;8.73;6.10;;;15.40;99.90;;;;;;5114155;28;20092;-60
2022/10/05 02:06:32;;;;;;;7.70;4.95;;;15.40;99.90;;;;;;5115086;28;20047;-61
2022/10/05 02:09:05;;;;;;;8.25;5.20;;;15.40;99.90;;;;;;5095858;28;20111;-60
2022/10/05 02:11:33;;;;;;;9.65;5.20;;;15.40;99.90;;;;;;5114914;28;20050;-60
2022/10/05 02:14:09;;;;;;;10.10;5.38;;;15.40;99.90;;;;;;5114374;28;20167;-60
2022/10/05 02:16:40;;;;;;;8.77;5.32;;;15.40;99.90;;;;;;5096063;28;20203;-61
2022/10/05 02:19:14;;;;;;;8.77;5.22;;;15.30;99.90;;;;;;5096802;28;20150;-59
2022/10/05 02:21:44;;;;;;;8.77;5.53;;;15.40;99.90;;;;;;5114806;28;20453;-61
2022/10/05 02:24:17;;;;;;;8.38;5.80;;;15.30;99.90;;;;;;5114000;28;20051;-60
2022/10/05 02:26:45;;;;;;;10.75;6.03;;;15.30;99.90;;;;;;5114405;28;20051;-60
2022/10/05 02:29:17;;;;;;;7.72;5.25;;;15.20;99.90;;;;;;5114483;28;20055;-60
2022/10/05 02:31:48;;;;;;;8.60;5.20;;;15.20;99.90;;;;;;5113713;28;20043;-60
2022/10/05 02:34:24;;;;;;;6.93;4.93;;;15.30;99.90;;;;;;5114472;28;20490;-60
2022/10/05 02:37:01;;;;;;;8.32;5.05;;;15.30;99.90;;;;;;5114726;28;20040;-60
2022/10/05 02:39:35;;;;;;;9.35;5.35;;;15.30;99.90;;;;;;5114558;28;20051;-60
2022/10/05 02:42:09;;;;;;;7.38;5.18;;;15.30;99.90;;;;;;5096341;28;20116;-60
2022/10/05 02:44:44;;;;;;;8.90;5.43;;;15.30;99.90;;;;;;5095191;28;20047;-60
2022/10/05 02:47:14;;;;;;;8.05;4.95;;;15.30;99.90;;;;;;5113906;28;20491;-60
2022/10/05 02:49:47;;;;;;;6.72;4.90;;;15.30;99.90;;;;;;5114388;28;20047;-60
2022/10/05 02:52:21;;;;;;;7.82;5.00;;;15.30;99.90;;;;;;5113223;28;20043;-60
2022/10/05 02:54:59;;;;;;;9.18;5.00;;;15.30;99.90;;;;;;5095560;28;20043;-61
2022/10/05 02:57:31;;;;;;;7.60;5.28;;;15.30;99.90;;;;;;5096054;28;20048;-60
2022/10/05 03:00:05;;;;;;;8.25;4.75;;;15.30;99.90;;;;;;5113503;28;20051;-61
2022/10/05 03:02:40;;;;;;;10.00;5.15;;;15.30;99.90;;;;;;5113823;28;20494;-60
2022/10/05 03:05:15;;;;;;;7.70;4.60;;;15.30;99.90;;;;;;5113149;28;20560;-61
2022/10/05 03:07:50;;;;;;;6.88;4.60;;;15.30;99.90;;;;;;5113129;28;20079;-60
2022/10/05 03:10:26;;;;;;;7.25;4.53;;;15.30;99.90;;;;;;5095327;28;20047;-60
2022/10/05 03:13:02;;;;;;;6.38;4.40;;;15.30;99.90;;;;;;5112646;28;20051;-60
2022/10/05 03:16:08;;;;;;;8.43;4.90;;;15.40;99.90;;;;;;5114115;28;20445;-60
2022/10/05 03:18:45;;;;;;;9.50;4.30;;;15.40;99.90;;;;;;5095218;28;20108;-60
2022/10/05 03:21:26;;;;;;;6.93;4.30;;;15.40;99.90;;;;;;5112966;28;20136;-59
2022/10/05 03:24:10;;;;;;;8.95;4.32;;;15.40;99.90;;;;;;5113422;28;20525;-60
2022/10/05 03:26:45;;;;;;;7.93;4.40;;;15.40;99.90;;;;;;5112802;28;20048;-60
2022/10/05 03:29:24;;;;;;;7.03;3.72;;;15.40;99.90;;;;;;5113677;28;20128;-59
2022/10/05 03:32:00;;;;;;;5.40;3.72;;;15.40;99.90;;;;;;5095321;28;20055;-61
2022/10/05 03:34:36;;;;;;;7.20;4.35;;;15.40;99.90;;;;;;5112046;28;20051;-60
2022/10/05 03:37:10;;;;;;;7.80;4.30;;;15.40;99.90;;;;;;5113627;28;20551;-60
2022/10/05 03:39:40;;;;;;;4.90;3.47;;;15.40;99.90;;;;;;5095508;28;20490;-60
2022/10/05 03:42:15;;;;;;;7.57;4.10;;;15.40;99.90;;;;;;5094614;28;20056;-60
2022/10/05 03:44:49;;;;;;;7.63;4.20;;;15.40;99.90;;;;;;5113467;28;20518;-61
2022/10/05 03:47:25;;;;;;;6.15;3.63;;;15.40;99.90;;;;;;5112920;28;20040;-61
2022/10/05 03:50:16;;;;;;;5.25;3.95;;;15.40;99.90;;;;;;5108726;28;20113;-60
2022/10/05 03:52:48;;;;;;;7.35;3.85;;;15.40;99.90;;;;;;5078566;28;20051;-60
2022/10/05 03:55:21;;;;;;;5.95;3.90;;;15.40;99.90;;;;;;5102628;28;20043;-61
2022/10/05 03:57:52;;;;;;;6.70;3.53;;;15.40;99.90;;;;;;5086030;28;20047;-60
2022/10/05 04:00:22;;;;;;;7.93;4.35;;;15.40;99.90;;;;;;5106853;28;20069;-60
2022/10/05 04:02:55;;;;;;;7.60;3.50;;;15.50;99.90;;;;;;5103572;28;20500;-60
2022/10/05 04:05:26;;;;;;;6.18;3.55;;;15.40;99.90;;;;;;5105068;28;20052;-61
2022/10/05 04:07:59;;;;;;;6.78;3.85;;;15.40;99.90;;;;;;5105955;28;20101;-60
2022/10/05 04:10:29;;;;;;;9.15;4.20;;;15.40;99.90;;;;;;5087456;28;20071;-61
2022/10/05 04:12:59;;;;;;;;;;;15.40;99.90;;;;;;5088575;28;20100;-61
2022/10/05 04:15:33;;;;;;;7.20;3.53;;;15.40;99.90;;;;;;5105114;28;19980;-60
2022/10/05 04:18:05;;;;;;;5.95;4.13;;;15.40;99.90;;;;;;5089108;28;20097;-60
2022/10/05 04:20:39;;;;;;;9.10;4.40;;;15.30;99.90;;;;;;5109579;28;20111;-62
2022/10/05 04:23:18;;;;;;;6.28;4.20;;;15.30;99.90;;;;;;5089478;28;20056;-61
2022/10/05 04:25:48;;;;;;;6.85;4.30;;;15.30;99.90;;;;;;5107117;28;20495;-61
2022/10/05 04:28:24;;;;;;;8.80;4.43;;;15.20;99.90;;;;;;5108449;28;20678;-61
2022/10/05 04:30:53;;;;;;;6.70;4.15;;;15.20;99.90;;;;;;5107117;28;20054;-61
2022/10/05 04:33:22;;;;;;;8.45;4.35;;;15.30;99.90;;;;;;5089219;28;20043;-62
2022/10/05 04:36:05;;;;;;;8.43;4.15;;;15.30;99.90;;;;;;5109010;28;20130;-60
2022/10/05 04:38:42;;;;;;;5.85;4.30;;;15.30;99.90;;;;;;5106364;28;20097;-60
2022/10/05 04:41:26;;;;;;;6.32;3.83;;;15.30;99.90;;;;;;5096247;28;20418;-59
2022/10/05 04:44:06;;;;;;;7.25;4.18;;;15.20;99.90;;;;;;5094215;28;20405;-60
2022/10/05 04:46:46;;;;;;;7.53;4.43;;;15.20;99.90;;;;;;5077909;28;20126;-60
2022/10/05 04:49:41;;;;;;;8.50;4.78;;;15.20;99.90;;;;;;5094750;28;20052;-60
2022/10/05 04:52:15;;;;;;;7.85;4.32;;;15.20;99.90;;;;;;5086203;28;20578;-60
2022/10/05 04:54:55;;;;;;;5.63;4.13;;;15.20;99.90;;;;;;5105300;28;20116;-60
2022/10/05 04:57:28;;;;;;;7.95;4.85;;;15.20;99.90;;;;;;5094490;28;20044;-61
2022/10/05 05:00:05;;;;;;;6.70;4.13;;;15.20;99.90;;;;;;5093480;28;20109;-60
2022/10/05 05:02:46;;;;;;;11.68;4.70;;;15.20;99.90;;;;;;5095872;28;20261;-62
2022/10/05 05:05:25;;;;;;;6.70;4.88;;;15.20;99.90;;;;;;5085167;28;20064;-60
2022/10/05 05:08:01;;;;;;;8.13;4.72;;;15.10;99.90;;;;;;5090110;28;20052;-60
2022/10/05 05:10:57;;;;;;;6.95;5.35;;;15.10;99.90;;;;;;5108516;28;20063;-61
2022/10/05 05:13:47;;;;;;;8.48;5.78;;;15.20;99.90;;;;;;5111420;28;20047;-60
2022/10/05 05:16:23;;;;;;;8.88;5.53;;;15.20;99.90;;;;;;5107161;28;20405;-59
2022/10/05 05:19:05;;;;;;;17.20;6.65;;;15.10;99.90;;;;;;5087725;28;20104;-60
2022/10/05 05:21:42;;;;;;;8.75;5.75;;;15.10;99.90;;;;;;5109506;28;20048;-60
2022/10/05 05:24:16;;;;;;;10.68;6.03;;;15.10;99.90;;;;;;5088581;28;20446;-61
2022/10/05 05:27:00;;;;;;;10.60;6.93;;;15.10;99.90;;;;;;5107120;28;20056;-61
2022/10/05 05:29:41;;;;;;;13.27;6.90;;;15.10;99.90;;;;;;5111208;28;20047;-61
2022/10/05 05:32:31;;;;;;;10.68;6.63;;;15.00;99.90;;;;;;5107168;28;20043;-59
2022/10/05 05:35:14;;;;;;;10.70;5.88;;;15.00;99.90;;;;;;5106575;28;20051;-60
2022/10/05 05:37:49;;;;;;;10.52;6.10;;;15.00;99.90;;;;;;5108557;28;20083;-61
2022/10/05 05:40:23;;;;;;;10.23;6.05;;;15.10;99.90;;;;;;5107023;28;20040;-60
2022/10/05 05:42:57;;;;;;;9.43;6.70;;;15.10;99.90;;;;;;5090009;28;20052;-61
2022/10/05 05:45:41;;;;;;;10.27;5.53;;;15.00;99.90;;;;;;5108165;28;20055;-61
2022/10/05 05:48:19;;;;;;;9.93;5.90;;;15.00;99.90;;;;;;5094103;28;20048;-60
2022/10/05 05:50:55;;;;;;;7.50;5.50;;;15.10;99.90;;;;;;5109574;28;20039;-61
2022/10/05 05:53:29;;;;;;;8.57;5.57;;;15.00;99.90;;;;;;5093592;28;20043;-61
2022/10/05 05:55:59;;;;;;;9.70;5.70;;;15.00;99.90;;;;;;5103377;28;20101;-60
2022/10/05 05:58:29;;;;;;;;;;;15.00;99.90;;;;;;5110054;28;20509;-60
2022/10/05 06:01:01;;;;;;;10.57;6.95;;;15.00;99.90;;;;;;5092569;28;19919;-61
2022/10/05 06:03:34;;;;;;;10.88;5.43;;;15.00;99.90;;;;;;5105616;28;20069;-60
2022/10/05 06:06:04;;;;;;;9.32;6.38;;;15.00;99.90;;;;;;5089998;28;20088;-60
2022/10/05 06:08:38;;;;;;;11.32;5.80;;;15.00;99.90;;;;;;5090857;28;20059;-61
2022/10/05 06:11:10;;;;;;;8.05;6.20;;;15.00;99.90;;;;;;5113532;28;20047;-60
2022/10/05 06:13:40;;;;;;;9.55;5.78;;;15.00;99.90;;;;;;5112414;27;20048;-62
2022/10/05 06:16:14;;;;;;;9.85;5.75;;;15.10;99.90;;;;;;5110551;28;20051;-60
2022/10/05 06:18:46;;;;;;;11.52;6.25;;;15.00;99.90;;;;;;5114610;28;20059;-60
2022/10/05 06:21:19;;;;;;;11.48;6.05;;;15.10;99.90;;;;;;5114957;28;20409;-61
2022/10/05 06:23:52;;;;;;;9.65;5.45;;;15.10;99.90;;;;;;5133789;27;20047;-60
2022/10/05 06:26:33;;;;;;;10.93;5.72;;;15.10;99.90;;;;;;5102122;27;24998;-60
2022/10/05 06:29:03;;;;;;;10.23;6.20;;;15.10;99.90;;;;;;5102470;28;20055;-60
2022/10/05 06:31:53;;;;;;;7.00;5.38;;;15.10;99.90;;;;;;5114280;27;20044;-61
2022/10/05 06:34:33;;;;;;;7.63;5.63;;;15.10;99.90;;;;;;5087372;28;20052;-60
2022/10/05 06:37:03;;;;;;;9.77;5.93;;;15.10;99.90;;;;;;5107592;27;20051;-60
2022/10/05 06:39:56;;;;;;;10.70;5.43;;;15.10;99.90;;;;;;5114081;27;20051;-61
2022/10/05 06:42:38;;;;;;;9.27;5.47;;;15.10;99.90;;;;;;5112840;28;20051;-60
2022/10/05 06:45:11;;;;;;;11.20;5.75;;;15.10;99.90;;;;;;5102831;28;20054;-60
2022/10/05 06:47:46;;;;;;;10.50;5.30;;;15.10;99.90;;;;;;5095498;28;20039;-59
2022/10/05 06:50:19;;;;;;;12.70;5.60;;;15.10;99.90;;;;;;5113314;28;20564;-59
2022/10/05 06:53:01;;;;;;;7.15;4.80;;;15.10;99.90;;;;;;5114074;28;20054;-60
2022/10/05 06:55:38;;;;;;;7.25;5.30;;;15.10;99.90;;;;;;5114035;28;20116;-60
2022/10/05 06:58:20;;;;;;;9.52;5.00;;;15.20;99.90;;;;;;5090052;28;20047;-61
2022/10/05 07:00:53;;;;;;;7.88;5.15;;;15.20;99.90;;;;;;5113955;28;20062;-61
2022/10/05 07:03:31;;;;;;;14.30;4.85;;;15.30;99.90;;;;;;5095585;28;20052;-60
2022/10/05 07:06:13;;;;;;;8.32;4.65;;;15.30;99.90;;;;;;5100332;27;20077;-61
2022/10/05 07:08:59;;;;;;;6.30;4.63;;;15.30;99.90;;;;;;5115956;27;20486;-61
2022/10/05 07:11:44;;;;;;;8.43;5.10;;;15.30;99.90;;;;;;5133468;27;20155;-61
2022/10/05 07:14:22;;;;;;;10.27;5.32;;;15.30;99.90;;;;;;5104638;28;20060;-60
2022/10/05 07:17:05;;;;;;;8.32;4.80;;;15.30;99.90;;;;;;5113071;28;20463;-60
2022/10/05 07:19:39;;;;;;;9.52;4.55;;;15.30;99.90;;;;;;5093990;28;20113;-59
2022/10/05 07:22:22;;;;;;;8.80;4.18;;;15.30;99.90;;;;;;5095128;28;20059;-61
2022/10/05 07:24:57;;;;;;;9.43;5.18;;;15.40;99.90;;;;;;5074820;28;20056;-60
2022/10/05 07:27:31;;;;;;;11.88;4.30;;;15.40;99.90;;;;;;5092033;28;20044;-60
2022/10/05 07:30:02;;;;;;;7.30;4.72;;;15.40;99.90;;;;;;5074899;28;20056;-61
2022/10/05 07:32:35;;;;;;;7.68;4.32;;;15.50;99.90;;;;;;5104758;28;20392;-60
2022/10/05 07:37:52;;;;;;;5.65;4.05;;;15.50;99.90;;;;;;5113313;28;20483;-61
2022/10/05 07:37:58;;;;;;;5.25;3.70;;;15.50;99.90;;;;;;5093903;28;20063;-61
2022/10/05 07:40:31;;;;;;;6.15;4.18;;;15.50;99.90;;;;;;5097196;28;20039;-61
2022/10/05 07:43:10;;;;;;;7.75;3.85;;;15.60;99.90;;;;;;5095227;28;20412;-61
2022/10/05 07:45:44;;;;;;;8.88;3.33;;;15.60;99.90;;;;;;5095279;28;20104;-59
2022/10/05 07:48:18;;;;;;;5.80;3.78;;;15.70;99.90;;;;;;5094102;28;20398;-60
2022/10/05 07:50:57;;;;;;;6.13;3.85;;;15.70;99.90;;;;;;5113458;28;20096;-60
2022/10/05 07:53:28;;;;;;;5.95;3.40;;;15.80;99.90;;;;;;5094562;28;20500;-61
2022/10/05 07:56:00;;;;;;;6.18;3.58;;;15.80;99.90;;;;;;5112775;28;20054;-60
2022/10/05 07:58:32;;;;;;;5.22;3.55;;;15.70;99.90;;;;;;5092739;28;20054;-61
2022/10/05 08:01:07;;;;;;;6.18;3.30;;;15.80;99.90;;;;;;5074153;28;20109;-61
2022/10/05 08:03:44;;;;;;;5.82;3.00;;;15.80;99.90;;;;;;5092973;28;20056;-60
2022/10/05 08:06:16;;;;;;;4.60;2.85;;;15.80;99.90;;;;;;5092609;28;20048;-59
2022/10/05 08:08:52;;;;;;;5.72;3.15;;;15.90;99.90;;;;;;5073806;28;20093;-61
2022/10/05 08:11:27;;;;;;;4.75;3.10;;;16.00;99.90;;;;;;5074839;28;20083;-62
2022/10/05 08:14:05;;;;;;;3.70;2.75;;;16.00;99.90;;;;;;5101366;28;20066;-61
2022/10/05 08:16:37;;;;;;;5.85;3.00;;;16.00;99.90;;;;;;5106390;28;20047;-61
2022/10/05 08:19:14;;;;;;;5.22;2.40;;;16.00;99.90;;;;;;5094960;28;20646;-60
2022/10/05 08:21:44;;;;;;;3.03;2.10;;;16.00;99.90;;;;;;5116625;28;20039;-61
2022/10/05 08:24:17;;;;;;;3.47;2.17;;;16.00;99.90;;;;;;5133850;28;20108;-61
2022/10/05 08:26:51;;;;;;;3.40;2.30;;;16.10;99.90;;;;;;5133342;28;20055;-61
2022/10/05 08:29:26;;;;;;;2.88;1.92;;;16.20;99.90;;;;;;5132602;28;20051;-61
2022/10/05 08:31:58;;;;;;;5.45;2.05;;;16.30;99.90;;;;;;5133361;28;20047;-61
2022/10/05 08:34:29;;;;;;;4.80;2.22;;;16.40;99.90;;;;;;5098811;28;20059;-61
2022/10/05 08:37:01;;;;;;;2.38;1.40;;;16.50;99.90;;;;;;5093885;28;20050;-61
2022/10/05 08:39:31;;;;;;;2.90;1.90;;;16.60;99.90;;;;;;5112723;28;20055;-60
2022/10/05 08:42:46;;;;;;;3.67;1.67;;;16.70;99.90;;;;;;5112259;28;20044;-60
2022/10/05 08:45:50;;;;;;;3.70;2.28;;;16.90;99.90;;;;;;5100652;28;20052;-61
2022/10/05 08:49:01;;;;;;;2.92;1.90;;;17.00;99.90;;;;;;5104846;28;20448;-61
2022/10/05 08:52:07;;;;;;;3.13;1.98;;;17.10;99.90;;;;;;5093496;28;20060;-61
2022/10/05 08:55:07;;;;;;;3.45;2.08;;;17.20;99.90;;;;;;5094711;28;20506;-61
2022/10/05 08:58:05;;;;;;;3.42;1.90;;;17.20;99.90;;;;;;5073068;28;20044;-61
2022/10/05 09:00:44;;;;;;;3.65;1.83;;;17.20;99.90;;;;;;5112786;28;20052;-59
2022/10/05 09:03:33;;;;;;;3.22;1.90;;;17.20;99.90;;;;;;5112450;28;20069;-61
2022/10/05 09:06:23;;;;;;;3.72;2.05;;;17.30;99.90;;;;;;5112690;28;20109;-60
2022/10/05 09:09:26;;;;;;;10.93;2.58;;;17.40;99.90;;;;;;5115822;28;20096;-61
2022/10/05 09:12:18;;;;;;;7.25;3.17;;;17.50;99.90;;;;;;5122583;27;20100;-61
2022/10/05 09:14:55;;;;;;;6.65;2.20;;;17.70;99.90;;;;;;5093132;28;20052;-61
2022/10/05 09:17:34;;;;;;;4.03;2.33;;;17.70;99.90;;;;;;5093229;28;20403;-60
2022/10/05 09:20:17;;;;;;;4.68;2.50;;;17.90;99.90;;;;;;5096747;28;20097;-60
2022/10/05 09:23:22;;;;;;;5.03;2.40;;;18.00;99.90;;;;;;5078345;28;20101;-60
2022/10/05 09:25:57;;;;;;;3.33;2.17;;;18.30;99.90;;;;;;5092899;28;20120;-61
2022/10/05 09:28:30;;;;;;;5.50;3.17;;;18.60;99.90;;;;;;5093517;28;20507;-61
2022/10/05 09:31:26;;;;;;;6.13;3.08;;;18.90;99.90;;;;;;5095652;28;20123;-61
2022/10/05 09:34:35;;;;;;;5.35;2.60;;;18.70;99.90;;;;;;5094164;28;20071;-61
2022/10/05 09:37:29;;;;;;;5.72;2.83;;;18.40;99.90;;;;;;5110584;28;20051;-60
2022/10/05 09:40:43;;;;;;;6.43;2.80;;;18.20;99.90;;;;;;5091813;28;20097;-61
2022/10/05 09:43:41;;;;;;;3.25;2.58;;;18.20;99.90;;;;;;5053368;28;20052;-60
2022/10/05 09:46:32;;;;;;;4.50;3.28;;;18.30;99.90;;;;;;5074707;28;20060;-61
2022/10/05 09:49:20;;;;;;;5.07;2.80;;;18.30;99.90;;;;;;5102870;28;20056;-60
2022/10/05 09:52:11;;;;;;;5.07;2.97;;;18.20;99.90;;;;;;5094036;28;20407;-60
2022/10/05 09:55:20;;;;;;;5.45;3.22;;;18.30;99.90;;;;;;5090140;28;20055;-61
2022/10/05 09:58:32;;;;;;;7.05;2.60;;;18.30;99.90;;;;;;5093746;28;20476;-61
2022/10/05 10:01:19;;;;;;;5.32;2.72;;;18.20;99.90;;;;;;5103368;28;20489;-61
2022/10/05 10:04:09;;;;;;;8.02;3.22;;;18.30;99.90;;;;;;5093195;28;20046;-61
2022/10/05 10:07:09;;;;;;;4.38;2.35;;;18.40;99.90;;;;;;5092755;28;20574;-61
2022/10/05 10:09:48;;;;;;;5.20;2.88;;;18.40;99.90;;;;;;5085291;28;20047;-61
2022/10/05 10:12:29;;;;;;;6.43;2.95;;;18.40;99.90;;;;;;5093522;28;20457;-61
2022/10/05 10:15:23;;;;;;;4.18;2.40;;;18.50;99.90;;;;;;5098375;28;20220;-61
2022/10/05 10:18:22;;;;;;;6.30;2.50;;;18.50;99.90;;;;;;5093383;28;20139;-60
2022/10/05 10:21:07;;;;;;;7.97;2.63;;;18.50;99.90;;;;;;5093569;28;20060;-61
2022/10/05 10:23:53;;;;;;;4.60;2.55;;;18.40;99.90;;;;;;5101662;28;20051;-60
2022/10/05 10:26:59;;;;;;;4.40;2.63;;;18.30;99.90;;;;;;5097106;28;20051;-61
2022/10/05 10:29:55;;;;;;;8.38;2.85;;;18.00;99.90;;;;;;5091675;28;20044;-60
2022/10/05 10:32:57;;;;;;;6.07;2.70;;;17.90;99.90;;;;;;5097792;28;20047;-60
2022/10/05 10:35:34;;;;;;;4.90;2.72;;;17.70;99.90;;;;;;5106071;27;20171;-61
2022/10/05 10:38:27;;;;;;;4.35;2.88;;;17.70;99.90;;;;;;5113800;28;20514;-61
2022/10/05 10:41:30;;;;;;;6.45;2.75;;;17.60;99.90;;;;;;5095837;28;20114;-61
2022/10/05 10:44:45;;;;;;;4.75;2.92;;;17.40;99.90;;;;;;5064807;28;20052;-61
2022/10/05 10:47:36;;;;;;;4.25;2.95;;;17.40;99.90;;;;;;5089296;28;20047;-60
2022/10/05 10:50:32;;;;;;;4.25;3.00;;;17.30;99.90;;;;;;5113577;28;20040;-60
2022/10/05 10:53:10;;;;;;;6.43;3.00;;;17.20;99.90;;;;;;5093709;28;20430;-60
2022/10/05 10:55:44;;;;;;;6.80;3.20;;;17.20;99.90;;;;;;5093759;28;20415;-61
2022/10/05 10:58:54;;;;;;;4.43;3.00;;;17.10;99.90;;;;;;5092827;28;20105;-61
2022/10/05 11:01:30;;;;;;;5.68;3.42;;;17.20;99.90;;;;;;5076007;28;20060;-61
2022/10/05 11:04:38;;;;;;;4.75;2.70;;;17.10;99.90;;;;;;5074986;28;20074;-60
2022/10/05 11:07:38;;;;;;;4.85;3.17;;;17.10;99.90;;;;;;5075570;28;20064;-61
2022/10/05 11:10:29;;;;;;;7.13;3.63;;;17.10;99.90;;;;;;5092714;28;20048;-61
2022/10/05 11:13:34;;;;;;;5.70;3.33;;;17.10;99.90;;;;;;5093619;28;20052;-61
2022/10/05 11:16:33;;;;;;;5.10;2.88;;;17.20;99.90;;;;;;5075543;28;20113;-61
2022/10/05 11:19:39;;;;;;;4.88;2.88;;;17.20;99.90;;;;;;5076624;28;20040;-60
2022/10/05 11:22:22;;;;;;;10.85;4.00;;;17.10;99.90;;;;;;5110466;28;20047;-61
2022/10/05 11:25:03;;;;;;;4.78;3.58;;;17.10;99.90;;;;;;5094672;28;20059;-61
2022/10/05 11:27:55;;;;;;;5.35;3.90;;;17.00;99.90;;;;;;5095146;28;20043;-61
2022/10/05 11:30:53;;;;;;;8.23;3.88;;;17.00;99.90;;;;;;5112179;28;20064;-60
2022/10/05 11:33:55;;;;;;;5.57;3.20;;;17.00;99.90;;;;;;5113023;28;20048;-60
2022/10/05 11:36:57;;;;;;;8.68;3.63;;;17.00;99.90;;;;;;5085229;28;20048;-60
2022/10/05 11:39:37;;;;;;;4.38;3.10;;;17.00;99.90;;;;;;5094459;28;20441;-61
2022/10/05 11:42:21;;;;;;;;;;;16.90;99.90;;;;;;5095479;28;20126;-61
2022/10/05 11:45:10;;;;;;;4.90;3.50;;;16.90;99.90;;;;;;5095026;28;19923;-60
2022/10/05 11:47:46;;;;;;;3.58;3.20;;;16.90;99.90;;;;;;5112534;28;20050;-60
2022/10/05 11:50:20;;;;;;;5.10;3.17;;;16.90;99.90;;;;;;5113324;28;20051;-60
2022/10/05 11:52:55;;;;;;;5.03;3.38;;;16.90;99.90;;;;;;5112535;28;20052;-60
2022/10/05 11:55:26;;;;;;;4.97;3.25;;;16.90;99.90;;;;;;5095238;28;20544;-60
2022/10/05 11:57:56;;;;;;;5.88;3.00;;;16.80;99.90;;;;;;5113156;28;20544;-60
2022/10/05 12:00:25;;;;;;;5.05;2.90;;;16.80;99.90;;;;;;5112315;28;20039;-60
2022/10/05 12:03:03;;;;;;;5.60;3.25;;;16.80;99.90;;;;;;5095284;28;20055;-60
2022/10/05 12:05:37;;;;;;;6.28;3.38;;;16.80;99.90;;;;;;5113388;28;20056;-60
2022/10/05 12:08:19;;;;;;;6.97;3.28;;;16.90;99.90;;;;;;5112276;28;20108;-60
2022/10/05 12:10:55;;;;;;;7.35;3.45;;;16.90;99.90;;;;;;5094793;28;20101;-61
2022/10/05 12:13:32;;;;;;;3.53;2.97;;;16.90;99.90;;;;;;5113111;28;20047;-60
2022/10/05 12:16:05;;;;;;;4.68;2.90;;;16.90;99.90;;;;;;5112185;28;20093;-61
2022/10/05 12:18:48;;;;;;;4.45;2.50;;;16.90;99.90;;;;;;5106236;28;20097;-61
2022/10/05 12:21:26;;;;;;;5.70;3.58;;;17.00;99.90;;;;;;5117548;28;20458;-61
2022/10/05 12:23:58;;;;;;;5.93;3.10;;;17.00;99.90;;;;;;5133760;28;20456;-61
2022/10/05 12:26:30;;;;;;;3.35;2.45;;;17.10;99.90;;;;;;5126064;28;20469;-60
2022/10/05 12:29:06;;;;;;;13.20;3.08;;;17.10;99.90;;;;;;5093085;28;20056;-61
2022/10/05 12:31:42;;;;;;;6.95;3.25;;;17.20;99.90;;;;;;5082448;28;20048;-59
2022/10/05 12:34:19;;;;;;;6.82;2.95;;;17.20;99.90;;;;;;5092448;28;20052;-61
2022/10/05 12:36:51;;;;;;;4.75;2.67;;;17.20;99.90;;;;;;5080592;28;20051;-61
2022/10/05 12:39:25;;;;;;;6.70;3.65;;;17.20;99.90;;;;;;5091684;28;20044;-61
2022/10/05 12:42:02;;;;;;;5.05;3.28;;;17.20;99.90;;;;;;5076738;28;20052;-61
2022/10/05 12:44:53;;;;;;;6.07;3.80;;;17.20;99.90;;;;;;5096203;28;20098;-62
2022/10/05 12:47:30;;;;;;;4.43;2.97;;;17.10;99.90;;;;;;5080972;28;20053;-62
2022/10/05 12:50:08;;;;;;;6.15;3.40;;;17.10;99.90;;;;;;5102470;28;20044;-61
2022/10/05 12:52:50;;;;;;;4.15;3.17;;;17.10;99.90;;;;;;5095443;28;20466;-61
2022/10/05 12:55:25;;;;;;;5.22;3.58;;;17.10;99.90;;;;;;5093874;28;20112;-60
2022/10/05 12:58:01;;;;;;;7.20;3.40;;;17.10;99.90;;;;;;5094163;28;20127;-60
2022/10/05 13:00:30;;;;;;;8.68;3.22;;;17.10;99.90;;;;;;5104012;28;20410;-60
2022/10/05 13:03:02;;;;;;;7.88;3.15;;;17.20;99.90;;;;;;5076559;28;20836;-61
2022/10/05 13:05:36;;;;;;;4.63;3.50;;;17.00;99.90;;;;;;5076357;28;20098;-61
2022/10/05 13:08:17;;;;;;;6.75;3.30;;;17.00;99.90;;;;;;5096782;28;20055;-61
2022/10/05 13:10:48;;;;;;;5.05;3.53;;;17.00;99.90;;;;;;5095943;28;20050;-61
2022/10/05 13:13:37;;;;;;;7.38;4.10;;;17.00;99.90;;;;;;5097201;28;20060;-60
2022/10/05 13:16:13;;;;;;;5.05;3.42;;;17.00;99.90;;;;;;5097246;28;20051;-60
2022/10/05 13:18:53;;;;;;;10.95;3.83;;;17.10;99.90;;;;;;5094715;28;20048;-61
2022/10/05 13:21:26;;;;;;;5.82;3.33;;;17.20;99.90;;;;;;5095216;28;20060;-61
2022/10/05 13:23:58;;;;;;;4.63;3.30;;;17.30;99.90;;;;;;5098963;28;20093;-60
2022/10/05 13:26:32;;;;;;;4.00;3.03;;;17.30;99.90;;;;;;5093417;28;20044;-60
2022/10/05 13:29:04;;;;;;;4.60;3.05;;;17.40;99.90;;;;;;5082376;28;20048;-60
2022/10/05 13:31:37;;;;;;;4.82;3.33;;;17.40;99.90;;;;;;5093094;28;20058;-60
2022/10/05 13:34:17;;;;;;;6.20;3.38;;;17.40;99.90;;;;;;5089243;28;20113;-61
2022/10/05 13:36:53;;;;;;;5.30;3.70;;;17.40;99.90;;;;;;5110481;28;20048;-61
2022/10/05 13:39:59;;;;;;;6.82;3.70;;;17.30;99.90;;;;;;5085906;28;20075;-61
2022/10/05 13:42:35;;;;;;;6.90;3.53;;;17.30;99.90;;;;;;5110165;28;20047;-61
2022/10/05 13:45:13;;;;;;;5.97;3.55;;;17.40;99.90;;;;;;5096954;28;20402;-61
2022/10/05 13:47:50;;;;;;;6.82;3.80;;;17.50;99.90;;;;;;5114511;28;20040;-61